Time;durP1;ratioP1;P1;durP2;ratioP2;P2;SDS_P1;SDS_P2;PMS_P1;PMS_P2;Temp;Humidity;BMP_temperature;BMP_pressure;BME280_temperature;BME280_humidity;BME280_pressure;Samples;Min_cycle;Max_cycle;Signal;HPM_P1;HPM_P2
2021/12/15 00:01:39;;;;;;;50.30;20.80;;;1.10;99.90;;;;;;4141925;28;20267;-70
2021/12/15 00:03:41;;;;;;;56.23;21.33;;;1.10;99.90;;;;;;4142717;28;20361;-61
2021/12/15 00:05:44;;;;;;;55.60;21.33;;;1.10;99.90;;;;;;4141700;28;20329;-64
2021/12/15 00:07:46;;;;;;;51.67;19.83;;;1.10;99.90;;;;;;4142961;28;20326;-61
2021/12/15 00:09:47;;;;;;;53.23;20.23;;;1.20;99.90;;;;;;4141871;28;20877;-61
2021/12/15 00:11:49;;;;;;;57.47;21.13;;;1.20;99.90;;;;;;4142651;28;21065;-61
2021/12/15 00:13:52;;;;;;;51.23;20.27;;;1.20;99.90;;;;;;4142320;28;20268;-60
2021/12/15 00:15:53;;;;;;;53.10;20.37;;;1.20;99.90;;;;;;4142587;28;20793;-61
2021/12/15 00:17:57;;;;;;;47.53;19.60;;;1.20;99.90;;;;;;4142270;28;20771;-60
2021/12/15 00:19:58;;;;;;;48.03;22.07;;;1.20;99.90;;;;;;4141865;28;20338;-61
2021/12/15 00:22:00;;;;;;;40.70;18.50;;;1.20;99.90;;;;;;4142716;28;20330;-59
2021/12/15 00:24:03;;;;;;;49.83;18.70;;;1.20;99.90;;;;;;4141610;28;20303;-60
2021/12/15 00:26:04;;;;;;;47.93;18.87;;;1.30;99.90;;;;;;4142413;28;20268;-60
2021/12/15 00:28:06;;;;;;;32.23;14.27;;;1.30;99.90;;;;;;4141449;28;20827;-64
2021/12/15 00:30:09;;;;;;;30.20;13.17;;;1.30;99.90;;;;;;4142448;28;20271;-59
2021/12/15 00:32:10;;;;;;;28.50;12.37;;;1.30;99.90;;;;;;4141303;28;20703;-61
2021/12/15 00:34:12;;;;;;;37.60;14.17;;;1.30;99.90;;;;;;4142940;28;20272;-61
2021/12/15 00:36:14;;;;;;;30.23;13.33;;;1.30;99.90;;;;;;4141090;28;20333;-61
2021/12/15 00:38:15;;;;;;;32.17;14.87;;;1.30;99.90;;;;;;4142874;28;20283;-65
2021/12/15 00:40:19;;;;;;;32.50;13.63;;;1.30;99.90;;;;;;4141436;28;20305;-61
2021/12/15 00:42:20;;;;;;;29.37;12.33;;;1.40;99.90;;;;;;4142397;28;21166;-61
2021/12/15 00:44:22;;;;;;;31.87;13.97;;;1.40;99.90;;;;;;4141392;28;20264;-63
2021/12/15 00:46:24;;;;;;;36.00;14.50;;;1.40;99.90;;;;;;4142199;28;20321;-61
2021/12/15 00:48:27;;;;;;;35.30;13.57;;;1.40;99.90;;;;;;4141106;28;20294;-63
2021/12/15 00:50:32;;;;;;;31.50;12.97;;;1.40;99.90;;;;;;4141618;28;20279;-66
2021/12/15 00:52:36;;;;;;;35.17;13.90;;;1.40;99.90;;;;;;4142029;28;20337;-61
2021/12/15 00:54:37;;;;;;;34.33;12.60;;;1.40;99.90;;;;;;4141279;28;20280;-61
2021/12/15 00:56:39;;;;;;;30.13;13.73;;;1.30;99.90;;;;;;4142045;28;20973;-57
2021/12/15 00:58:40;;;;;;;31.27;13.13;;;1.30;99.90;;;;;;4140734;28;20422;-60
2021/12/15 01:00:56;;;;;;;43.03;16.80;;;1.30;99.90;;;;;;4142289;28;20322;-56
2021/12/15 01:02:58;;;;;;;35.37;14.97;;;1.30;99.90;;;;;;4140851;28;20337;-63
2021/12/15 01:04:59;;;;;;;35.43;15.03;;;1.30;99.90;;;;;;4142540;28;20260;-65
2021/12/15 01:07:04;;;;;;;34.93;13.67;;;1.30;99.90;;;;;;4140562;28;20379;-60
2021/12/15 01:09:11;;;;;;;39.80;14.33;;;1.30;99.90;;;;;;4142253;28;20318;-64
2021/12/15 01:20:42;;;;;;;34.07;13.10;;;1.30;99.90;;;;;;4140164;28;20841;-60
2021/12/15 01:22:47;;;;;;;32.63;13.30;;;1.30;99.90;;;;;;4141623;28;20326;-67
2021/12/15 01:24:49;;;;;;;34.33;14.53;;;1.30;99.90;;;;;;4140824;28;20296;-60
2021/12/15 01:26:50;;;;;;;28.97;12.80;;;1.30;99.90;;;;;;4141698;28;20345;-60
2021/12/15 01:28:51;;;;;;;32.77;14.00;;;1.40;99.90;;;;;;4140086;28;20272;-61
2021/12/15 01:30:55;;;;;;;31.83;13.13;;;1.40;99.90;;;;;;4141893;28;20283;-60
2021/12/15 01:32:58;;;;;;;33.40;14.93;;;1.40;99.90;;;;;;4140519;28;20278;-61
2021/12/15 01:34:59;;;;;;;32.20;14.63;;;1.40;99.90;;;;;;4141694;28;20275;-61
2021/12/15 01:37:00;;;;;;;36.97;14.50;;;1.40;99.90;;;;;;4139945;28;20267;-60
2021/12/15 01:39:03;;;;;;;38.70;15.13;;;1.50;99.90;;;;;;4141796;28;20345;-61
2021/12/15 01:41:07;;;;;;;30.43;13.33;;;1.50;99.90;;;;;;4140412;28;20264;-59
2021/12/15 01:43:17;;;;;;;29.77;13.23;;;1.50;99.90;;;;;;4141773;28;20357;-61
2021/12/15 01:47:38;;;;;;;37.90;15.87;;;1.50;99.90;;;;;;4141845;28;20096;-61
2021/12/15 01:49:43;;;;;;;38.63;16.73;;;1.50;99.90;;;;;;4140320;28;20259;-63
2021/12/15 01:51:44;;;;;;;39.77;17.40;;;1.40;99.90;;;;;;4141310;28;20333;-60
2021/12/15 01:53:46;;;;;;;40.33;18.13;;;1.40;99.90;;;;;;4140164;28;20271;-60
2021/12/15 01:55:49;;;;;;;38.67;17.87;;;1.40;99.90;;;;;;4141174;28;20295;-65
2021/12/15 01:57:50;;;;;;;36.37;16.90;;;1.30;99.90;;;;;;4140230;28;20322;-62
2021/12/15 01:59:53;;;;;;;38.30;18.57;;;1.30;99.90;;;;;;4140533;28;20694;-61
2021/12/15 02:01:54;;;;;;;44.00;18.53;;;1.30;99.90;;;;;;4140491;28;20287;-62
2021/12/15 02:03:56;;;;;;;43.43;19.30;;;1.30;99.90;;;;;;4140183;28;20303;-61
2021/12/15 02:05:58;;;;;;;50.57;19.67;;;1.30;99.90;;;;;;4139472;28;20349;-61
2021/12/15 02:08:00;;;;;;;53.73;21.43;;;1.30;99.90;;;;;;4140224;28;20675;-59
2021/12/15 02:10:04;;;;;;;49.10;19.43;;;1.30;99.90;;;;;;4141996;28;21061;-64
2021/12/15 02:12:06;;;;;;;51.33;21.70;;;1.20;99.90;;;;;;4140047;28;20334;-54
2021/12/15 02:14:07;;;;;;;44.53;17.80;;;1.20;99.90;;;;;;4141504;28;20353;-61
2021/12/15 02:16:09;;;;;;;46.83;19.27;;;1.20;99.90;;;;;;4140579;28;20271;-65
2021/12/15 02:18:14;;;;;;;45.33;18.10;;;1.20;99.90;;;;;;4140937;28;20329;-59
2021/12/15 02:20:17;;;;;;;44.57;19.03;;;1.10;99.90;;;;;;4139978;28;20284;-62
2021/12/15 02:22:19;;;;;;;46.73;19.77;;;1.10;99.90;;;;;;4141526;28;20333;-63
2021/12/15 02:24:22;;;;;;;43.47;17.80;;;1.10;99.90;;;;;;4139465;28;20298;-60
2021/12/15 02:26:33;;;;;;;46.37;19.17;;;1.10;99.90;;;;;;4140766;28;20306;-60
2021/12/15 02:28:38;;;;;;;38.47;17.48;;;1.10;99.90;;;;;;4140184;28;20275;-59
2021/12/15 02:33:06;;;;;;;48.33;18.37;;;1.10;99.90;;;;;;4142960;28;20272;-60
2021/12/15 02:37:26;;;;;;;44.47;18.10;;;1.10;99.90;;;;;;4143389;28;20310;-60
2021/12/15 02:39:28;;;;;;;38.07;15.00;;;1.00;99.90;;;;;;4144089;28;20038;-57
2021/12/15 02:41:31;;;;;;;32.30;14.80;;;1.00;99.90;;;;;;4143408;28;20317;-62
2021/12/15 02:43:33;;;;;;;41.03;16.83;;;1.00;99.90;;;;;;4144090;28;20699;-60
2021/12/15 02:45:34;;;;;;;40.53;16.93;;;1.00;99.90;;;;;;4143175;28;20282;-60
2021/12/15 02:47:35;;;;;;;43.47;17.73;;;1.10;99.90;;;;;;4144223;28;20271;-63
2021/12/15 02:49:37;;;;;;;41.43;17.53;;;1.10;99.90;;;;;;4143862;28;21017;-62
2021/12/15 02:51:40;;;;;;;41.93;18.13;;;1.10;99.90;;;;;;4143492;28;20466;-62
2021/12/15 02:53:42;;;;;;;31.67;14.93;;;1.10;99.90;;;;;;4143732;28;20314;-62
2021/12/15 02:55:43;;;;;;;31.93;14.10;;;1.20;99.90;;;;;;4141675;28;20267;-60
2021/12/15 02:57:45;;;;;;;35.67;14.70;;;1.20;99.90;;;;;;4143792;28;21090;-61
2021/12/15 03:00:00;;;;;;;36.10;14.97;;;1.10;99.90;;;;;;4142541;28;20877;-66
2021/12/15 03:02:20;;;;;;;33.50;15.33;;;1.10;99.90;;;;;;4143918;28;20770;-62
2021/12/15 03:04:49;;;;;;;36.47;16.00;;;1.10;99.90;;;;;;4143550;28;20295;-64
2021/12/15 03:07:12;;;;;;;34.37;14.63;;;1.10;99.90;;;;;;4143293;28;20513;-63
2021/12/15 03:16:20;;;;;;;33.27;15.20;;;1.10;99.90;;;;;;4142324;28;20326;-61
2021/12/15 03:18:24;;;;;;;31.90;14.57;;;1.10;99.90;;;;;;4143605;28;20346;-59
2021/12/15 03:20:28;;;;;;;30.50;14.23;;;1.10;99.90;;;;;;4142421;28;20318;-60
2021/12/15 03:22:29;;;;;;;37.50;15.57;;;1.10;99.90;;;;;;4143644;28;20317;-59
2021/12/15 03:24:31;;;;;;;29.63;14.03;;;1.10;99.90;;;;;;4142499;28;20345;-57
2021/12/15 03:26:39;;;;;;;38.40;15.53;;;1.10;99.90;;;;;;4143514;28;20848;-59
2021/12/15 03:35:46;;;;;;;30.95;12.90;;;1.10;99.90;;;;;;4143476;28;20275;-59
2021/12/15 03:37:55;;;;;;;32.57;13.63;;;1.00;99.90;;;;;;4141653;28;20034;-60
2021/12/15 03:40:10;;;;;;;26.53;12.30;;;1.00;99.90;;;;;;4142927;28;20256;-64
2021/12/15 03:42:16;;;;;;;27.40;12.23;;;1.00;99.90;;;;;;4141736;28;20267;-60
2021/12/15 03:44:18;;;;;;;28.53;11.53;;;1.00;99.90;;;;;;4141767;28;20322;-60
2021/12/15 03:46:19;;;;;;;23.30;11.33;;;1.00;99.90;;;;;;4142573;28;20271;-60
2021/12/15 03:48:24;;;;;;;24.63;11.43;;;0.90;99.90;;;;;;4143024;28;20675;-59
2021/12/15 03:50:26;;;;;;;28.97;12.17;;;0.90;99.90;;;;;;4141939;28;20268;-59
2021/12/15 03:52:27;;;;;;;24.07;11.53;;;0.90;99.90;;;;;;4143097;28;20337;-57
2021/12/15 03:54:29;;;;;;;26.10;11.80;;;0.90;99.90;;;;;;4142561;28;20425;-59
2021/12/15 03:56:30;;;;;;;25.07;12.00;;;0.90;99.90;;;;;;4142362;28;20280;-61
2021/12/15 03:58:31;;;;;;;25.23;11.60;;;0.80;99.90;;;;;;4142793;28;20322;-59
2021/12/15 04:00:33;;;;;;;24.17;10.50;;;0.80;99.90;;;;;;4141789;28;20275;-60
2021/12/15 04:02:34;;;;;;;24.03;11.10;;;0.80;99.90;;;;;;4143126;28;20283;-59
2021/12/15 04:04:36;;;;;;;26.50;12.47;;;0.80;99.90;;;;;;4141622;28;20377;-59
2021/12/15 04:06:40;;;;;;;26.00;11.27;;;0.80;99.90;;;;;;4143241;28;20267;-61
2021/12/15 04:08:42;;;;;;;27.03;12.43;;;0.80;99.90;;;;;;4141571;28;20272;-62
2021/12/15 04:10:43;;;;;;;27.60;11.60;;;0.80;99.90;;;;;;4142793;28;20283;-62
2021/12/15 04:12:44;;;;;;;31.03;11.87;;;0.80;99.90;;;;;;4141915;28;20821;-61
2021/12/15 04:14:54;;;;;;;25.50;13.13;;;0.80;99.90;;;;;;4142775;28;20329;-59
2021/12/15 04:17:02;;;;;;;26.73;11.82;;;0.70;99.90;;;;;;4142102;28;20341;-61
2021/12/15 04:19:15;;;;;;;36.63;15.90;;;0.70;99.90;;;;;;4142811;28;20537;-60
2021/12/15 04:21:17;;;;;;;27.73;12.00;;;0.70;99.90;;;;;;4141488;28;20958;-66
2021/12/15 04:23:20;;;;;;;22.80;11.77;;;0.60;99.90;;;;;;4142929;28;20271;-62
2021/12/15 04:25:31;;;;;;;26.47;12.60;;;0.60;99.90;;;;;;4140174;28;20318;-61
2021/12/15 04:27:32;;;;;;;26.52;12.13;;;0.60;99.90;;;;;;4142850;28;20802;-62
2021/12/15 04:29:33;;;;;;;26.13;11.60;;;0.60;99.90;;;;;;4141336;28;20064;-59
2021/12/15 04:31:39;;;;;;;23.43;11.70;;;0.60;99.90;;;;;;4142216;28;20349;-70
2021/12/15 04:33:55;;;;;;;24.67;12.20;;;0.60;99.90;;;;;;4141277;28;20755;-61
2021/12/15 04:35:59;;;;;;;24.73;11.23;;;0.50;99.90;;;;;;4142184;28;20287;-59
2021/12/15 04:38:01;;;;;;;29.37;12.37;;;0.50;99.90;;;;;;4141103;28;20307;-60
2021/12/15 04:40:05;;;;;;;35.60;15.47;;;0.50;99.90;;;;;;4142058;28;20267;-61
2021/12/15 04:42:07;;;;;;;31.33;14.87;;;0.50;99.90;;;;;;4141286;28;20263;-61
2021/12/15 04:44:10;;;;;;;28.47;13.07;;;0.40;99.90;;;;;;4141561;28;20727;-58
2021/12/15 04:46:12;;;;;;;28.87;13.77;;;0.40;99.90;;;;;;4141822;28;20330;-60
2021/12/15 04:48:14;;;;;;;24.90;12.27;;;0.40;99.90;;;;;;4141745;28;20771;-60
2021/12/15 04:50:15;;;;;;;27.07;12.73;;;0.40;99.90;;;;;;4142126;28;21016;-62
2021/12/15 04:52:20;;;;;;;28.57;12.67;;;0.40;99.90;;;;;;4141186;28;20356;-61
2021/12/15 04:54:21;;;;;;;30.23;13.47;;;0.40;99.90;;;;;;4141789;28;20263;-63
2021/12/15 04:56:24;;;;;;;32.57;15.53;;;0.40;99.90;;;;;;4140160;28;20263;-62
2021/12/15 04:58:25;;;;;;;50.73;24.00;;;0.40;99.90;;;;;;4141428;28;20283;-60
2021/12/15 05:00:29;;;;;;;29.47;13.97;;;0.40;99.90;;;;;;4140185;28;20695;-60
2021/12/15 05:02:31;;;;;;;25.47;12.07;;;0.40;99.90;;;;;;4141922;28;20325;-61
2021/12/15 05:04:33;;;;;;;28.33;12.57;;;0.40;99.90;;;;;;4140299;28;21164;-60
2021/12/15 05:06:35;;;;;;;38.50;18.47;;;0.40;99.90;;;;;;4141845;28;20332;-60
2021/12/15 05:08:38;;;;;;;29.50;15.50;;;0.40;99.90;;;;;;4137372;28;20275;-64
2021/12/15 05:10:39;;;;;;;31.57;14.03;;;0.40;99.90;;;;;;4131452;28;20675;-60
2021/12/15 05:12:41;;;;;;;33.53;15.27;;;0.40;99.90;;;;;;4139352;28;20337;-61
2021/12/15 05:14:43;;;;;;;31.43;15.07;;;0.40;99.90;;;;;;4141139;28;21017;-61
2021/12/15 05:16:45;;;;;;;28.20;13.90;;;0.30;99.90;;;;;;4141154;28;20670;-60
2021/12/15 05:18:46;;;;;;;32.53;16.83;;;0.30;99.90;;;;;;4140166;28;20357;-61
2021/12/15 05:20:51;;;;;;;29.37;14.47;;;0.30;99.90;;;;;;4140703;28;20346;-64
2021/12/15 05:22:53;;;;;;;29.43;13.57;;;0.30;99.90;;;;;;4140264;28;20299;-64
2021/12/15 05:24:55;;;;;;;29.37;14.60;;;0.30;99.90;;;;;;4140729;28;20353;-62
2021/12/15 05:27:03;;;;;;;28.40;14.20;;;0.30;99.90;;;;;;4140551;28;21049;-62
2021/12/15 05:29:04;;;;;;;34.37;15.43;;;0.30;99.90;;;;;;4140803;28;20302;-61
2021/12/15 05:31:06;;;;;;;28.73;14.03;;;0.30;99.90;;;;;;4140053;28;20271;-61
2021/12/15 05:33:07;;;;;;;28.30;13.20;;;0.30;99.90;;;;;;4141018;28;20310;-60
2021/12/15 05:35:10;;;;;;;26.70;12.17;;;0.30;99.90;;;;;;4140386;28;20793;-57
2021/12/15 05:37:12;;;;;;;22.73;12.00;;;0.30;99.90;;;;;;4141765;28;20338;-62
2021/12/15 05:39:13;;;;;;;23.70;12.40;;;0.20;99.90;;;;;;4140138;28;20361;-63
2021/12/15 05:41:15;;;;;;;25.07;13.13;;;0.30;99.90;;;;;;4140577;28;20695;-66
2021/12/15 05:43:16;;;;;;;32.87;14.00;;;0.30;99.90;;;;;;4139968;28;20279;-60
2021/12/15 05:45:18;;;;;;;28.50;12.37;;;0.30;99.90;;;;;;4140855;28;20341;-63
2021/12/15 05:47:20;;;;;;;28.63;12.83;;;0.30;99.90;;;;;;4140475;28;20268;-64
2021/12/15 05:49:21;;;;;;;24.70;12.57;;;0.30;99.90;;;;;;4140668;28;20337;-62
2021/12/15 05:51:22;;;;;;;32.23;13.37;;;0.30;99.90;;;;;;4139823;28;20760;-61
2021/12/15 05:53:23;;;;;;;29.70;12.53;;;0.30;99.90;;;;;;4140374;28;20280;-63
2021/12/15 05:55:25;;;;;;;24.30;11.97;;;0.20;99.90;;;;;;4140651;28;20272;-62
2021/12/15 05:57:26;;;;;;;24.60;12.53;;;0.20;99.90;;;;;;4139571;28;20287;-62
2021/12/15 05:59:27;;;;;;;23.53;10.93;;;0.20;99.90;;;;;;4140473;28;20798;-63
2021/12/15 06:01:29;;;;;;;29.23;13.90;;;0.20;99.90;;;;;;4139312;28;20252;-64
2021/12/15 06:03:30;;;;;;;23.40;11.87;;;0.20;99.90;;;;;;4140701;28;20817;-61
2021/12/15 06:05:33;;;;;;;27.03;12.43;;;0.20;99.90;;;;;;4139515;28;20295;-62
2021/12/15 06:07:34;;;;;;;23.57;12.00;;;0.20;99.90;;;;;;4140607;28;20263;-61
2021/12/15 06:09:36;;;;;;;28.13;13.47;;;0.20;99.90;;;;;;4140148;28;20317;-62
2021/12/15 06:11:37;;;;;;;24.97;12.57;;;0.30;99.90;;;;;;4140838;28;20287;-62
2021/12/15 06:13:38;;;;;;;31.43;13.57;;;0.30;99.90;;;;;;4139642;28;20268;-62
2021/12/15 06:15:42;;;;;;;30.83;13.87;;;0.30;99.90;;;;;;4140748;28;20597;-65
2021/12/15 06:17:43;;;;;;;30.63;13.03;;;0.30;99.90;;;;;;4139931;28;20751;-62
2021/12/15 06:19:44;;;;;;;26.87;12.83;;;0.40;99.90;;;;;;4141029;28;20272;-62
2021/12/15 06:21:45;;;;;;;25.10;12.13;;;0.40;99.90;;;;;;4139861;28;20326;-62
2021/12/15 06:23:48;;;;;;;26.30;11.67;;;0.40;99.90;;;;;;4140518;28;20283;-61
2021/12/15 06:25:55;;;;;;;23.30;11.50;;;0.40;99.90;;;;;;4139713;28;20286;-62
2021/12/15 06:27:56;;;;;;;20.63;10.47;;;0.40;99.90;;;;;;4140241;28;20710;-62
2021/12/15 06:29:57;;;;;;;21.50;10.83;;;0.50;99.90;;;;;;4139719;28;20669;-61
2021/12/15 06:31:58;;;;;;;26.30;12.17;;;0.40;99.90;;;;;;4138767;28;20306;-62
2021/12/15 06:34:00;;;;;;;24.60;12.27;;;0.50;99.90;;;;;;4140005;28;20829;-62
2021/12/15 06:36:03;;;;;;;25.37;11.90;;;0.50;99.90;;;;;;4139269;28;20329;-64
2021/12/15 06:38:05;;;;;;;32.93;15.43;;;0.50;99.90;;;;;;4140729;28;20267;-62
2021/12/15 06:40:08;;;;;;;25.73;12.20;;;0.50;99.90;;;;;;4139323;28;20609;-62
2021/12/15 06:42:10;;;;;;;25.50;11.07;;;0.50;99.90;;;;;;4140674;28;20318;-67
2021/12/15 06:44:13;;;;;;;25.03;11.17;;;0.50;99.90;;;;;;4138967;28;20284;-62
2021/12/15 07:00:07;;;;;;;31.63;13.67;;;0.50;99.90;;;;;;4139690;28;20766;-62
2021/12/15 07:02:09;;;;;;;29.20;13.77;;;0.50;99.90;;;;;;4139214;28;20711;-61
2021/12/15 07:04:10;;;;;;;28.17;13.13;;;0.50;99.90;;;;;;4140077;28;20401;-62
2021/12/15 07:06:12;;;;;;;25.57;12.67;;;0.50;99.90;;;;;;4139395;28;20275;-63
2021/12/15 07:08:14;;;;;;;27.97;13.77;;;0.50;99.90;;;;;;4140879;28;20663;-62
2021/12/15 07:10:20;;;;;;;32.67;14.73;;;0.50;99.90;;;;;;4139107;28;20291;-62
2021/12/15 07:12:21;;;;;;;32.80;14.63;;;0.40;99.90;;;;;;4140304;28;20896;-62
2021/12/15 07:14:23;;;;;;;29.03;14.97;;;0.40;99.90;;;;;;4138368;28;20341;-62
2021/12/15 07:16:25;;;;;;;38.40;15.30;;;0.40;99.90;;;;;;4140247;28;20268;-62
2021/12/15 07:21:07;;;;;;;31.73;14.10;;;0.40;99.90;;;;;;4134484;28;20734;-61
2021/12/15 07:23:14;;;;;;;34.70;15.73;;;0.30;99.90;;;;;;4140534;28;20349;-61
2021/12/15 07:25:16;;;;;;;31.30;15.07;;;0.40;99.90;;;;;;4143383;28;20373;-61
2021/12/15 07:27:17;;;;;;;34.23;14.57;;;0.40;99.90;;;;;;4141972;28;20337;-62
2021/12/15 07:29:18;;;;;;;33.13;14.60;;;0.40;99.90;;;;;;4142180;28;20338;-63
2021/12/15 07:31:20;;;;;;;29.37;13.53;;;0.40;99.90;;;;;;4141408;28;20283;-62
2021/12/15 07:33:22;;;;;;;33.17;15.10;;;0.40;99.90;;;;;;4143159;28;20325;-61
2021/12/15 07:35:24;;;;;;;30.63;13.70;;;0.50;99.90;;;;;;4142707;28;20271;-62
2021/12/15 07:37:25;;;;;;;27.17;13.17;;;0.40;99.90;;;;;;4142425;28;20381;-61
2021/12/15 07:39:27;;;;;;;33.60;14.70;;;0.40;99.90;;;;;;4142103;28;20286;-61
2021/12/15 07:41:32;;;;;;;29.70;13.97;;;0.40;99.90;;;;;;4141960;28;20338;-62
2021/12/15 07:43:33;;;;;;;26.57;12.80;;;0.50;99.90;;;;;;4142178;28;20287;-62
2021/12/15 07:45:36;;;;;;;29.40;13.50;;;0.50;99.90;;;;;;4141249;28;20344;-62
2021/12/15 07:47:38;;;;;;;31.60;14.23;;;0.60;99.90;;;;;;4142596;28;20300;-61
2021/12/15 07:49:39;;;;;;;30.77;13.43;;;0.60;99.90;;;;;;4141500;28;20375;-61
2021/12/15 07:51:43;;;;;;;29.73;13.67;;;0.60;99.90;;;;;;4142542;28;20330;-65
2021/12/15 07:53:44;;;;;;;33.57;14.57;;;0.60;99.90;;;;;;4141648;28;20271;-64
2021/12/15 07:55:47;;;;;;;30.47;15.03;;;0.60;99.90;;;;;;4142709;28;20822;-62
2021/12/15 07:57:50;;;;;;;30.30;13.83;;;0.60;99.90;;;;;;4141031;28;20334;-60
2021/12/15 07:59:51;;;;;;;25.13;12.30;;;0.70;99.90;;;;;;4142798;28;20295;-62
2021/12/15 08:01:52;;;;;;;24.33;11.47;;;0.80;99.90;;;;;;4141461;28;20329;-66
2021/12/15 08:03:55;;;;;;;26.80;12.33;;;0.80;99.90;;;;;;4143280;28;20291;-63
2021/12/15 08:05:56;;;;;;;37.37;12.77;;;0.80;99.90;;;;;;4141218;28;20959;-64
2021/12/15 08:07:58;;;;;;;26.10;12.10;;;0.90;99.90;;;;;;4142222;28;20334;-63
2021/12/15 08:09:59;;;;;;;28.23;13.10;;;1.00;99.90;;;;;;4141717;28;20329;-62
2021/12/15 08:12:01;;;;;;;29.57;12.43;;;1.00;99.90;;;;;;4141616;28;20299;-62
2021/12/15 08:14:02;;;;;;;30.90;12.57;;;1.00;99.90;;;;;;4141371;28;20263;-63
2021/12/15 08:16:04;;;;;;;26.13;10.80;;;1.00;99.90;;;;;;4139986;28;20279;-63
2021/12/15 08:18:05;;;;;;;27.07;12.40;;;0.90;99.90;;;;;;4142126;28;20342;-63
2021/12/15 08:20:10;;;;;;;24.97;11.50;;;0.80;99.90;;;;;;4140826;28;20264;-61
2021/12/15 08:22:11;;;;;;;23.13;10.87;;;0.70;99.90;;;;;;4141895;28;21098;-62
2021/12/15 08:24:13;;;;;;;33.13;12.50;;;0.60;99.90;;;;;;4141046;28;20275;-62
2021/12/15 08:26:14;;;;;;;27.10;12.97;;;0.70;99.90;;;;;;4141972;28;20785;-62
2021/12/15 08:28:16;;;;;;;22.80;10.77;;;0.60;99.90;;;;;;4141071;28;20317;-62
2021/12/15 08:30:22;;;;;;;27.77;11.93;;;0.70;99.90;;;;;;4142006;28;20283;-61
2021/12/15 08:32:23;;;;;;;28.83;12.07;;;0.90;99.90;;;;;;4140450;28;20267;-61
2021/12/15 08:34:25;;;;;;;26.37;11.90;;;0.90;99.90;;;;;;4141428;28;20329;-62
2021/12/15 08:36:27;;;;;;;24.83;10.97;;;0.90;99.90;;;;;;4141029;28;20268;-61
2021/12/15 08:38:32;;;;;;;28.27;11.80;;;0.90;99.90;;;;;;4142127;28;20275;-60
2021/12/15 08:40:34;;;;;;;24.87;11.43;;;0.90;99.90;;;;;;4140021;28;20743;-60
2021/12/15 08:42:36;;;;;;;25.10;11.23;;;1.10;99.90;;;;;;4141761;28;20793;-62
2021/12/15 08:44:38;;;;;;;22.00;9.40;;;1.00;99.90;;;;;;4140294;28;20350;-62
2021/12/15 08:46:46;;;;;;;24.70;9.23;;;1.20;99.90;;;;;;4141232;28;20271;-61
2021/12/15 08:48:49;;;;;;;25.23;11.10;;;1.20;99.90;;;;;;4141089;28;20294;-61
2021/12/15 08:50:50;;;;;;;22.93;9.60;;;1.20;99.90;;;;;;4141133;28;20264;-62
2021/12/15 08:52:51;;;;;;;23.47;10.90;;;1.20;99.90;;;;;;4141201;28;20357;-62
2021/12/15 08:54:53;;;;;;;26.93;11.20;;;1.30;99.90;;;;;;4140710;28;20267;-61
2021/12/15 08:56:55;;;;;;;24.03;10.63;;;1.40;99.90;;;;;;4141727;28;20712;-61
2021/12/15 08:58:56;;;;;;;24.27;10.63;;;1.50;99.90;;;;;;4139997;28;20711;-61
2021/12/15 09:00:58;;;;;;;22.27;10.77;;;1.60;99.90;;;;;;4141628;28;20321;-61
2021/12/15 09:03:00;;;;;;;23.07;10.63;;;1.60;99.90;;;;;;4140668;28;20613;-61
2021/12/15 09:05:04;;;;;;;26.73;10.80;;;1.70;99.90;;;;;;4141241;28;20295;-61
2021/12/15 09:07:06;;;;;;;26.00;10.87;;;1.70;99.90;;;;;;4140611;28;20679;-61
2021/12/15 09:09:10;;;;;;;23.60;10.00;;;1.80;99.90;;;;;;4141669;28;20739;-63
2021/12/15 09:11:14;;;;;;;21.83;10.73;;;2.00;99.90;;;;;;4140636;28;21436;-61
2021/12/15 09:13:16;;;;;;;24.37;12.03;;;2.00;99.90;;;;;;4141769;28;20268;-61
2021/12/15 09:15:17;;;;;;;25.87;11.00;;;1.90;99.90;;;;;;4140882;28;20355;-62
2021/12/15 09:17:18;;;;;;;24.73;11.33;;;1.90;99.90;;;;;;4141110;28;20275;-61
2021/12/15 09:19:20;;;;;;;26.87;12.43;;;2.00;99.90;;;;;;4140279;28;20252;-62
2021/12/15 09:21:23;;;;;;;24.80;11.70;;;2.10;99.90;;;;;;4141276;28;20655;-61
2021/12/15 09:23:25;;;;;;;26.50;11.07;;;2.20;99.90;;;;;;4140500;28;20730;-61
2021/12/15 09:25:28;;;;;;;29.80;11.33;;;2.10;99.90;;;;;;4140871;28;20430;-61
2021/12/15 09:27:29;;;;;;;23.30;10.90;;;2.10;99.90;;;;;;4140642;28;20761;-62
2021/12/15 09:29:30;;;;;;;23.53;12.17;;;2.10;99.90;;;;;;4140177;28;20305;-63
2021/12/15 09:31:33;;;;;;;24.87;10.37;;;2.20;99.90;;;;;;4140515;28;20365;-63
2021/12/15 09:33:45;;;;;;;28.10;10.53;;;2.20;99.90;;;;;;4140329;28;20293;-61
2021/12/15 09:35:47;;;;;;;22.13;10.73;;;2.20;99.90;;;;;;4140528;28;20679;-62
2021/12/15 09:37:49;;;;;;;22.87;11.20;;;2.20;99.90;;;;;;4139846;28;20394;-62
2021/12/15 09:39:50;;;;;;;27.70;12.63;;;2.30;99.90;;;;;;4141310;28;20259;-63
2021/12/15 09:41:52;;;;;;;26.07;11.17;;;2.30;99.90;;;;;;4139291;28;20715;-63
2021/12/15 09:43:57;;;;;;;20.07;10.00;;;2.40;99.90;;;;;;4140889;28;20267;-62
2021/12/15 09:46:10;;;;;;;18.57;9.73;;;2.50;99.90;;;;;;4139500;28;20291;-62
2021/12/15 09:57:35;;;;;;;20.40;9.47;;;2.40;99.90;;;;;;4141154;28;20748;-65
2021/12/15 10:02:27;;;;;;;23.17;10.10;;;2.30;99.90;;;;;;4127378;28;20333;-62
2021/12/15 10:04:41;;;;;;;22.40;9.67;;;2.20;99.90;;;;;;4138675;28;21035;-62
2021/12/15 10:11:41;;;;;;;22.92;9.52;;;2.40;99.90;;;;;;4139778;28;20329;-62
2021/12/15 10:18:42;;;;;;;22.17;9.43;;;2.30;99.90;;;;;;4140798;28;20080;-62
2021/12/15 10:20:44;;;;;;;23.77;9.93;;;2.40;99.90;;;;;;4139635;28;20263;-63
2021/12/15 10:22:50;;;;;;;20.53;9.43;;;2.50;99.90;;;;;;4140545;28;20320;-61
2021/12/15 10:24:59;;;;;;;22.63;9.10;;;2.50;99.90;;;;;;4138844;28;20341;-62
2021/12/15 10:27:04;;;;;;;22.13;9.70;;;2.60;99.90;;;;;;4140122;28;20279;-62
2021/12/15 10:29:08;;;;;;;23.87;9.87;;;2.60;99.90;;;;;;4139261;28;20260;-63
2021/12/15 10:31:13;;;;;;;19.77;9.27;;;2.50;99.90;;;;;;4140683;28;20833;-63
2021/12/15 10:33:27;;;;;;;23.20;9.57;;;2.50;99.90;;;;;;4139272;28;20377;-62
2021/12/15 10:35:30;;;;;;;24.13;9.90;;;2.60;99.90;;;;;;4141310;28;20337;-64
2021/12/15 10:37:32;;;;;;;24.47;9.67;;;2.60;99.90;;;;;;4139492;28;20279;-62
2021/12/15 10:39:33;;;;;;;21.07;9.30;;;2.70;99.90;;;;;;4140768;28;20288;-64
2021/12/15 10:41:37;;;;;;;18.10;9.20;;;2.70;99.90;;;;;;4139450;28;20345;-62
2021/12/15 10:43:47;;;;;;;17.40;9.33;;;2.70;99.90;;;;;;4140174;28;20287;-63
2021/12/15 10:46:00;;;;;;;24.88;10.25;;;2.70;99.90;;;;;;4139376;28;20303;-63
2021/12/15 10:48:01;;;;;;;20.20;9.13;;;2.70;99.90;;;;;;4140218;28;20046;-63
2021/12/15 10:50:02;;;;;;;22.00;9.60;;;2.90;99.90;;;;;;4140011;28;20271;-62
2021/12/15 10:52:05;;;;;;;20.63;8.87;;;2.90;99.90;;;;;;4139945;28;20671;-63
2021/12/15 10:54:13;;;;;;;22.27;9.60;;;2.90;99.90;;;;;;4142648;28;20271;-62
2021/12/15 10:56:20;;;;;;;18.77;9.13;;;3.00;99.90;;;;;;4142892;28;20327;-63
2021/12/15 10:58:46;;;;;;;17.33;7.77;;;3.10;99.90;;;;;;4143086;28;20663;-62
2021/12/15 11:00:48;;;;;;;23.03;10.50;;;3.10;99.90;;;;;;4143282;28;20272;-61
2021/12/15 11:02:49;;;;;;;20.47;8.80;;;3.10;99.90;;;;;;4142796;28;20748;-64
2021/12/15 11:04:55;;;;;;;24.67;8.50;;;2.90;99.90;;;;;;4142527;28;20279;-62
2021/12/15 11:07:34;;;;;;;18.47;9.60;;;3.00;99.90;;;;;;4142367;28;20275;-63
2021/12/15 11:09:58;;;;;;;17.40;8.60;;;3.10;99.90;;;;;;4142906;28;20376;-61
2021/12/15 11:12:03;;;;;;;17.43;7.60;;;3.20;99.90;;;;;;4130792;28;20329;-62
2021/12/15 11:14:34;;;;;;;25.73;10.43;;;3.10;99.90;;;;;;4142599;28;20363;-63
2021/12/15 11:16:35;;;;;;;21.75;8.48;;;3.10;99.90;;;;;;4142030;28;20279;-61
2021/12/15 11:18:37;;;;;;;25.07;10.23;;;3.00;99.90;;;;;;4142944;28;20093;-68
2021/12/15 11:20:40;;;;;;;14.43;6.47;;;3.10;99.90;;;;;;4142323;28;20325;-64
2021/12/15 11:22:49;;;;;;;14.43;6.60;;;3.10;99.90;;;;;;4142867;28;20337;-62
2021/12/15 11:24:50;;;;;;;15.23;7.00;;;3.20;99.90;;;;;;4141463;28;20284;-65
2021/12/15 11:27:17;;;;;;;18.23;7.47;;;3.30;99.90;;;;;;4142077;28;20314;-63
2021/12/15 11:29:39;;;;;;;17.23;7.97;;;3.30;99.90;;;;;;4141662;28;20260;-64
2021/12/15 11:31:40;;;;;;;14.33;8.00;;;3.20;99.90;;;;;;4142997;28;20263;-62
2021/12/15 11:34:05;;;;;;;15.27;7.80;;;3.30;99.90;;;;;;4141753;28;20950;-68
2021/12/15 11:36:15;;;;;;;20.83;8.83;;;3.40;99.90;;;;;;4142648;28;20267;-63
2021/12/15 11:38:34;;;;;;;16.80;8.05;;;3.40;99.90;;;;;;4141555;28;20263;-62
2021/12/15 11:40:40;;;;;;;20.57;8.93;;;3.50;99.90;;;;;;4142443;28;20026;-62
2021/12/15 11:42:43;;;;;;;19.67;8.33;;;3.40;99.90;;;;;;4141759;28;21707;-63
2021/12/15 11:44:44;;;;;;;16.63;7.63;;;3.30;99.90;;;;;;4142817;28;20271;-62
2021/12/15 11:46:51;;;;;;;14.33;7.53;;;3.30;99.90;;;;;;4141883;28;20373;-62